sensor_id;sensor_type;location;lat;lon;timestamp;P1;durP1;ratioP1;P2;durP2;ratioP2
8698;SDS011;4386;51.236;6.742;2022-07-11T00:00:55;4.83;;;3.07;;
8698;SDS011;4386;51.236;6.742;2022-07-11T00:01:57;2.93;;;2.73;;
8698;SDS011;4386;51.236;6.742;2022-07-11T00:03:02;9.10;;;3.50;;
8698;SDS011;4386;51.236;6.742;2022-07-11T00:04:04;4.80;;;2.80;;
8698;SDS011;4386;51.236;6.742;2022-07-11T00:05:07;5.90;;;2.63;;
8698;SDS011;4386;51.236;6.742;2022-07-11T00:06:10;6.43;;;3.40;;
8698;SDS011;4386;51.236;6.742;2022-07-11T00:07:13;4.60;;;3.50;;
8698;SDS011;4386;51.236;6.742;2022-07-11T00:08:15;6.70;;;3.30;;
8698;SDS011;4386;51.236;6.742;2022-07-11T00:09:18;4.63;;;3.40;;
8698;SDS011;4386;51.236;6.742;2022-07-11T00:10:19;4.57;;;3.17;;
8698;SDS011;4386;51.236;6.742;2022-07-11T00:11:22;4.67;;;3.30;;
8698;SDS011;4386;51.236;6.742;2022-07-11T00:12:24;6.30;;;3.13;;
8698;SDS011;4386;51.236;6.742;2022-07-11T00:13:28;5.00;;;3.30;;
8698;SDS011;4386;51.236;6.742;2022-07-11T00:14:29;3.97;;;3.03;;
8698;SDS011;4386;51.236;6.742;2022-07-11T00:15:33;4.33;;;3.60;;
8698;SDS011;4386;51.236;6.742;2022-07-11T00:16:35;4.13;;;3.23;;
8698;SDS011;4386;51.236;6.742;2022-07-11T00:17:38;5.93;;;3.07;;
8698;SDS011;4386;51.236;6.742;2022-07-11T00:18:40;6.77;;;3.50;;
8698;SDS011;4386;51.236;6.742;2022-07-11T00:19:42;5.40;;;2.90;;
8698;SDS011;4386;51.236;6.742;2022-07-11T00:20:45;7.60;;;3.47;;
8698;SDS011;4386;51.236;6.742;2022-07-11T00:21:48;9.23;;;4.20;;
8698;SDS011;4386;51.236;6.742;2022-07-11T00:22:51;10.00;;;3.10;;
8698;SDS011;4386;51.236;6.742;2022-07-11T00:23:53;8.53;;;4.00;;
8698;SDS011;4386;51.236;6.742;2022-07-11T00:24:55;4.60;;;3.53;;
8698;SDS011;4386;51.236;6.742;2022-07-11T00:25:58;6.07;;;3.00;;
8698;SDS011;4386;51.236;6.742;2022-07-11T00:26:59;7.77;;;3.40;;
8698;SDS011;4386;51.236;6.742;2022-07-11T00:28:02;7.63;;;3.60;;
8698;SDS011;4386;51.236;6.742;2022-07-11T00:29:04;5.20;;;3.13;;
8698;SDS011;4386;51.236;6.742;2022-07-11T00:30:08;8.30;;;3.27;;
8698;SDS011;4386;51.236;6.742;2022-07-11T00:31:12;6.47;;;3.87;;
8698;SDS011;4386;51.236;6.742;2022-07-11T00:32:14;4.27;;;3.33;;
8698;SDS011;4386;51.236;6.742;2022-07-11T00:33:16;4.13;;;3.10;;
8698;SDS011;4386;51.236;6.742;2022-07-11T00:34:19;4.30;;;3.47;;
8698;SDS011;4386;51.236;6.742;2022-07-11T00:35:20;6.40;;;3.17;;
8698;SDS011;4386;51.236;6.742;2022-07-11T00:36:23;7.80;;;4.43;;
8698;SDS011;4386;51.236;6.742;2022-07-11T00:37:25;4.80;;;3.20;;
8698;SDS011;4386;51.236;6.742;2022-07-11T00:38:27;5.77;;;3.40;;
8698;SDS011;4386;51.236;6.742;2022-07-11T00:39:29;7.57;;;3.17;;
8698;SDS011;4386;51.236;6.742;2022-07-11T00:40:31;7.10;;;3.50;;
8698;SDS011;4386;51.236;6.742;2022-07-11T00:41:33;3.33;;;2.97;;
8698;SDS011;4386;51.236;6.742;2022-07-11T00:42:37;7.13;;;3.77;;
8698;SDS011;4386;51.236;6.742;2022-07-11T00:43:39;6.73;;;3.93;;
8698;SDS011;4386;51.236;6.742;2022-07-11T00:44:44;3.60;;;3.10;;
8698;SDS011;4386;51.236;6.742;2022-07-11T00:45:47;5.23;;;3.23;;
8698;SDS011;4386;51.236;6.742;2022-07-11T00:46:51;4.30;;;3.53;;
8698;SDS011;4386;51.236;6.742;2022-07-11T00:47:55;4.43;;;3.33;;
8698;SDS011;4386;51.236;6.742;2022-07-11T00:48:59;4.90;;;3.57;;
8698;SDS011;4386;51.236;6.742;2022-07-11T00:50:01;9.03;;;3.80;;
8698;SDS011;4386;51.236;6.742;2022-07-11T00:51:04;6.00;;;3.40;;
8698;SDS011;4386;51.236;6.742;2022-07-11T00:52:06;6.60;;;3.83;;
8698;SDS011;4386;51.236;6.742;2022-07-11T00:53:09;5.17;;;3.80;;
8698;SDS011;4386;51.236;6.742;2022-07-11T00:54:11;5.20;;;3.73;;
8698;SDS011;4386;51.236;6.742;2022-07-11T00:55:15;8.93;;;4.13;;
8698;SDS011;4386;51.236;6.742;2022-07-11T00:56:17;4.43;;;3.53;;
8698;SDS011;4386;51.236;6.742;2022-07-11T00:57:22;4.83;;;4.00;;
8698;SDS011;4386;51.236;6.742;2022-07-11T00:58:24;5.53;;;3.20;;
8698;SDS011;4386;51.236;6.742;2022-07-11T00:59:26;4.90;;;3.60;;
8698;SDS011;4386;51.236;6.742;2022-07-11T01:00:30;5.63;;;3.70;;
8698;SDS011;4386;51.236;6.742;2022-07-11T01:01:32;6.60;;;3.67;;
8698;SDS011;4386;51.236;6.742;2022-07-11T01:02:40;4.43;;;3.40;;
8698;SDS011;4386;51.236;6.742;2022-07-11T01:03:42;6.43;;;3.70;;
8698;SDS011;4386;51.236;6.742;2022-07-11T01:04:45;4.30;;;3.90;;
8698;SDS011;4386;51.236;6.742;2022-07-11T01:05:47;9.53;;;3.37;;
8698;SDS011;4386;51.236;6.742;2022-07-11T01:06:50;12.67;;;4.60;;
8698;SDS011;4386;51.236;6.742;2022-07-11T01:07:52;5.60;;;4.00;;
8698;SDS011;4386;51.236;6.742;2022-07-11T01:08:55;3.50;;;3.20;;
8698;SDS011;4386;51.236;6.742;2022-07-11T01:09:57;8.40;;;3.83;;
8698;SDS011;4386;51.236;6.742;2022-07-11T01:11:00;5.00;;;3.63;;
8698;SDS011;4386;51.236;6.742;2022-07-11T01:12:03;4.73;;;4.07;;
8698;SDS011;4386;51.236;6.742;2022-07-11T01:13:07;8.57;;;4.20;;
8698;SDS011;4386;51.236;6.742;2022-07-11T01:14:08;7.47;;;3.60;;
8698;SDS011;4386;51.236;6.742;2022-07-11T01:15:13;5.93;;;3.50;;
8698;SDS011;4386;51.236;6.742;2022-07-11T01:16:16;9.87;;;3.97;;
8698;SDS011;4386;51.236;6.742;2022-07-11T01:17:20;5.27;;;3.80;;
8698;SDS011;4386;51.236;6.742;2022-07-11T01:18:23;7.43;;;3.47;;
8698;SDS011;4386;51.236;6.742;2022-07-11T01:19:26;4.20;;;3.70;;
8698;SDS011;4386;51.236;6.742;2022-07-11T01:20:28;3.13;;;2.83;;
8698;SDS011;4386;51.236;6.742;2022-07-11T01:21:31;7.23;;;4.30;;
8698;SDS011;4386;51.236;6.742;2022-07-11T01:22:40;5.77;;;4.23;;
8698;SDS011;4386;51.236;6.742;2022-07-11T01:23:47;7.27;;;3.93;;
8698;SDS011;4386;51.236;6.742;2022-07-11T01:24:50;5.10;;;3.50;;
8698;SDS011;4386;51.236;6.742;2022-07-11T01:25:53;6.60;;;4.93;;
8698;SDS011;4386;51.236;6.742;2022-07-11T01:26:56;9.00;;;3.40;;
8698;SDS011;4386;51.236;6.742;2022-07-11T01:28:00;5.77;;;3.67;;
8698;SDS011;4386;51.236;6.742;2022-07-11T01:29:04;6.23;;;4.63;;
8698;SDS011;4386;51.236;6.742;2022-07-11T01:30:07;8.80;;;3.90;;
8698;SDS011;4386;51.236;6.742;2022-07-11T01:31:10;4.97;;;3.00;;
8698;SDS011;4386;51.236;6.742;2022-07-11T01:32:13;6.87;;;3.73;;
8698;SDS011;4386;51.236;6.742;2022-07-11T01:33:15;8.13;;;4.00;;
8698;SDS011;4386;51.236;6.742;2022-07-11T01:34:17;5.83;;;3.90;;
8698;SDS011;4386;51.236;6.742;2022-07-11T01:35:20;15.17;;;3.80;;
8698;SDS011;4386;51.236;6.742;2022-07-11T01:36:22;5.37;;;3.70;;
8698;SDS011;4386;51.236;6.742;2022-07-11T01:37:24;5.20;;;4.00;;
8698;SDS011;4386;51.236;6.742;2022-07-11T01:38:26;9.17;;;4.10;;
8698;SDS011;4386;51.236;6.742;2022-07-11T01:39:30;7.13;;;4.30;;
8698;SDS011;4386;51.236;6.742;2022-07-11T01:40:31;7.30;;;3.70;;
8698;SDS011;4386;51.236;6.742;2022-07-11T01:41:34;10.20;;;3.73;;
8698;SDS011;4386;51.236;6.742;2022-07-11T01:42:36;3.97;;;3.53;;
8698;SDS011;4386;51.236;6.742;2022-07-11T01:43:39;5.37;;;3.77;;
8698;SDS011;4386;51.236;6.742;2022-07-11T01:44:41;4.87;;;3.57;;
8698;SDS011;4386;51.236;6.742;2022-07-11T01:45:43;6.03;;;3.40;;
8698;SDS011;4386;51.236;6.742;2022-07-11T01:46:45;8.17;;;4.67;;
8698;SDS011;4386;51.236;6.742;2022-07-11T01:47:48;7.33;;;4.40;;
8698;SDS011;4386;51.236;6.742;2022-07-11T01:48:50;7.03;;;3.83;;
8698;SDS011;4386;51.236;6.742;2022-07-11T01:49:52;4.43;;;3.67;;
8698;SDS011;4386;51.236;6.742;2022-07-11T01:50:54;9.93;;;3.93;;
8698;SDS011;4386;51.236;6.742;2022-07-11T01:51:57;6.33;;;3.53;;
8698;SDS011;4386;51.236;6.742;2022-07-11T01:52:58;9.50;;;4.70;;
8698;SDS011;4386;51.236;6.742;2022-07-11T01:54:03;7.57;;;4.27;;
8698;SDS011;4386;51.236;6.742;2022-07-11T01:55:06;4.83;;;4.00;;
8698;SDS011;4386;51.236;6.742;2022-07-11T01:56:12;6.13;;;3.97;;
8698;SDS011;4386;51.236;6.742;2022-07-11T01:57:19;4.83;;;3.90;;
8698;SDS011;4386;51.236;6.742;2022-07-11T01:58:22;5.13;;;4.17;;
8698;SDS011;4386;51.236;6.742;2022-07-11T01:59:24;10.93;;;4.30;;
8698;SDS011;4386;51.236;6.742;2022-07-11T02:00:26;5.60;;;4.23;;
8698;SDS011;4386;51.236;6.742;2022-07-11T02:01:28;5.70;;;3.83;;
8698;SDS011;4386;51.236;6.742;2022-07-11T02:02:31;8.20;;;3.60;;
8698;SDS011;4386;51.236;6.742;2022-07-11T02:03:33;4.33;;;3.70;;
8698;SDS011;4386;51.236;6.742;2022-07-11T02:04:35;6.30;;;3.77;;
8698;SDS011;4386;51.236;6.742;2022-07-11T02:05:37;7.43;;;4.30;;
8698;SDS011;4386;51.236;6.742;2022-07-11T02:06:41;6.37;;;3.80;;
8698;SDS011;4386;51.236;6.742;2022-07-11T02:07:42;6.80;;;3.53;;
8698;SDS011;4386;51.236;6.742;2022-07-11T02:09:02;5.13;;;3.90;;
8698;SDS011;4386;51.236;6.742;2022-07-11T02:10:07;4.63;;;4.23;;
8698;SDS011;4386;51.236;6.742;2022-07-11T02:11:09;9.57;;;4.80;;
8698;SDS011;4386;51.236;6.742;2022-07-11T02:12:12;9.40;;;4.03;;
8698;SDS011;4386;51.236;6.742;2022-07-11T02:13:14;7.93;;;4.57;;
8698;SDS011;4386;51.236;6.742;2022-07-11T02:14:19;5.80;;;4.50;;
8698;SDS011;4386;51.236;6.742;2022-07-11T02:15:20;9.47;;;4.03;;
8698;SDS011;4386;51.236;6.742;2022-07-11T02:16:26;4.20;;;3.77;;
8698;SDS011;4386;51.236;6.742;2022-07-11T02:17:28;9.67;;;4.17;;
8698;SDS011;4386;51.236;6.742;2022-07-11T02:18:30;9.47;;;4.10;;
8698;SDS011;4386;51.236;6.742;2022-07-11T02:19:35;7.87;;;4.53;;
8698;SDS011;4386;51.236;6.742;2022-07-11T02:20:37;6.80;;;4.10;;
8698;SDS011;4386;51.236;6.742;2022-07-11T02:21:40;9.50;;;4.70;;
8698;SDS011;4386;51.236;6.742;2022-07-11T02:22:42;7.90;;;4.33;;
8698;SDS011;4386;51.236;6.742;2022-07-11T02:23:45;5.83;;;4.00;;
8698;SDS011;4386;51.236;6.742;2022-07-11T02:24:47;8.47;;;4.47;;
8698;SDS011;4386;51.236;6.742;2022-07-11T02:25:51;5.87;;;4.23;;
8698;SDS011;4386;51.236;6.742;2022-07-11T02:26:54;7.47;;;4.77;;
8698;SDS011;4386;51.236;6.742;2022-07-11T02:27:57;4.67;;;4.20;;
8698;SDS011;4386;51.236;6.742;2022-07-11T02:28:59;7.77;;;4.40;;
8698;SDS011;4386;51.236;6.742;2022-07-11T02:30:02;8.93;;;4.70;;
8698;SDS011;4386;51.236;6.742;2022-07-11T02:31:04;5.10;;;3.77;;
8698;SDS011;4386;51.236;6.742;2022-07-11T02:32:07;8.47;;;4.37;;
8698;SDS011;4386;51.236;6.742;2022-07-11T02:33:09;5.77;;;4.00;;
8698;SDS011;4386;51.236;6.742;2022-07-11T02:34:15;6.50;;;4.50;;
8698;SDS011;4386;51.236;6.742;2022-07-11T02:35:16;9.70;;;4.10;;
8698;SDS011;4386;51.236;6.742;2022-07-11T02:36:19;6.40;;;4.70;;
8698;SDS011;4386;51.236;6.742;2022-07-11T02:37:21;5.83;;;4.13;;
8698;SDS011;4386;51.236;6.742;2022-07-11T02:38:24;6.40;;;4.20;;
8698;SDS011;4386;51.236;6.742;2022-07-11T02:39:26;11.23;;;4.97;;
8698;SDS011;4386;51.236;6.742;2022-07-11T02:40:28;8.43;;;4.93;;
8698;SDS011;4386;51.236;6.742;2022-07-11T02:41:32;7.63;;;4.93;;
8698;SDS011;4386;51.236;6.742;2022-07-11T02:42:34;8.70;;;4.30;;
8698;SDS011;4386;51.236;6.742;2022-07-11T02:43:37;8.53;;;4.73;;
8698;SDS011;4386;51.236;6.742;2022-07-11T02:44:38;7.97;;;4.83;;
8698;SDS011;4386;51.236;6.742;2022-07-11T02:45:41;7.00;;;4.23;;
8698;SDS011;4386;51.236;6.742;2022-07-11T02:46:43;11.63;;;5.87;;
8698;SDS011;4386;51.236;6.742;2022-07-11T02:47:46;6.43;;;4.73;;
8698;SDS011;4386;51.236;6.742;2022-07-11T02:48:48;6.20;;;4.43;;
8698;SDS011;4386;51.236;6.742;2022-07-11T02:49:50;7.77;;;4.50;;
8698;SDS011;4386;51.236;6.742;2022-07-11T02:50:52;9.10;;;4.67;;
8698;SDS011;4386;51.236;6.742;2022-07-11T02:51:54;6.33;;;4.30;;
8698;SDS011;4386;51.236;6.742;2022-07-11T02:52:56;6.53;;;4.90;;
8698;SDS011;4386;51.236;6.742;2022-07-11T02:53:59;9.13;;;5.07;;
8698;SDS011;4386;51.236;6.742;2022-07-11T02:55:00;11.17;;;5.00;;
8698;SDS011;4386;51.236;6.742;2022-07-11T02:56:03;7.60;;;4.90;;
8698;SDS011;4386;51.236;6.742;2022-07-11T02:57:07;7.13;;;4.60;;
8698;SDS011;4386;51.236;6.742;2022-07-11T02:58:10;7.13;;;4.27;;
8698;SDS011;4386;51.236;6.742;2022-07-11T02:59:11;5.33;;;4.60;;
8698;SDS011;4386;51.236;6.742;2022-07-11T03:00:15;7.80;;;4.30;;
8698;SDS011;4386;51.236;6.742;2022-07-11T03:01:18;5.03;;;4.33;;
8698;SDS011;4386;51.236;6.742;2022-07-11T03:02:21;10.47;;;4.50;;
8698;SDS011;4386;51.236;6.742;2022-07-11T03:03:22;10.53;;;4.43;;
8698;SDS011;4386;51.236;6.742;2022-07-11T03:04:25;10.60;;;4.93;;
8698;SDS011;4386;51.236;6.742;2022-07-11T03:05:27;5.77;;;4.60;;
8698;SDS011;4386;51.236;6.742;2022-07-11T03:06:30;10.30;;;4.83;;
8698;SDS011;4386;51.236;6.742;2022-07-11T03:07:31;6.43;;;4.40;;
8698;SDS011;4386;51.236;6.742;2022-07-11T03:08:34;4.80;;;4.40;;
8698;SDS011;4386;51.236;6.742;2022-07-11T03:09:37;10.47;;;4.10;;
8698;SDS011;4386;51.236;6.742;2022-07-11T03:10:39;7.93;;;4.47;;
8698;SDS011;4386;51.236;6.742;2022-07-11T03:11:41;4.83;;;4.30;;
8698;SDS011;4386;51.236;6.742;2022-07-11T03:12:46;5.53;;;4.97;;
8698;SDS011;4386;51.236;6.742;2022-07-11T03:13:47;8.07;;;4.57;;
8698;SDS011;4386;51.236;6.742;2022-07-11T03:14:50;4.93;;;4.43;;
8698;SDS011;4386;51.236;6.742;2022-07-11T03:15:52;7.00;;;4.80;;
8698;SDS011;4386;51.236;6.742;2022-07-11T03:16:54;7.07;;;4.53;;
8698;SDS011;4386;51.236;6.742;2022-07-11T03:17:56;6.70;;;4.30;;
8698;SDS011;4386;51.236;6.742;2022-07-11T03:18:59;5.80;;;4.33;;
8698;SDS011;4386;51.236;6.742;2022-07-11T03:20:01;7.00;;;3.93;;
8698;SDS011;4386;51.236;6.742;2022-07-11T03:21:03;5.53;;;4.03;;
8698;SDS011;4386;51.236;6.742;2022-07-11T03:22:05;7.77;;;4.17;;
8698;SDS011;4386;51.236;6.742;2022-07-11T03:23:09;6.27;;;4.00;;
8698;SDS011;4386;51.236;6.742;2022-07-11T03:24:11;11.60;;;4.20;;
8698;SDS011;4386;51.236;6.742;2022-07-11T03:25:14;10.60;;;4.40;;
8698;SDS011;4386;51.236;6.742;2022-07-11T03:26:16;5.50;;;3.90;;
8698;SDS011;4386;51.236;6.742;2022-07-11T03:27:18;11.10;;;4.33;;
8698;SDS011;4386;51.236;6.742;2022-07-11T03:28:21;4.63;;;3.70;;
8698;SDS011;4386;51.236;6.742;2022-07-11T03:29:24;7.00;;;4.13;;
8698;SDS011;4386;51.236;6.742;2022-07-11T03:30:26;7.37;;;4.57;;
8698;SDS011;4386;51.236;6.742;2022-07-11T03:31:28;6.50;;;3.97;;
8698;SDS011;4386;51.236;6.742;2022-07-11T03:32:31;10.03;;;4.10;;
8698;SDS011;4386;51.236;6.742;2022-07-11T03:33:33;5.97;;;4.10;;
8698;SDS011;4386;51.236;6.742;2022-07-11T03:34:35;6.80;;;4.20;;
8698;SDS011;4386;51.236;6.742;2022-07-11T03:35:38;8.00;;;4.00;;
8698;SDS011;4386;51.236;6.742;2022-07-11T03:36:43;4.93;;;4.33;;
8698;SDS011;4386;51.236;6.742;2022-07-11T03:37:47;7.70;;;4.40;;
8698;SDS011;4386;51.236;6.742;2022-07-11T03:38:48;8.33;;;4.50;;
8698;SDS011;4386;51.236;6.742;2022-07-11T03:39:51;6.37;;;4.63;;
8698;SDS011;4386;51.236;6.742;2022-07-11T03:40:53;9.10;;;4.40;;
8698;SDS011;4386;51.236;6.742;2022-07-11T03:41:57;5.70;;;4.30;;
8698;SDS011;4386;51.236;6.742;2022-07-11T03:43:00;7.83;;;4.20;;
8698;SDS011;4386;51.236;6.742;2022-07-11T03:44:03;7.50;;;3.90;;
8698;SDS011;4386;51.236;6.742;2022-07-11T03:45:06;6.97;;;4.90;;
8698;SDS011;4386;51.236;6.742;2022-07-11T03:46:09;4.93;;;3.87;;
8698;SDS011;4386;51.236;6.742;2022-07-11T03:47:11;6.77;;;4.50;;
8698;SDS011;4386;51.236;6.742;2022-07-11T03:48:14;5.53;;;4.30;;
8698;SDS011;4386;51.236;6.742;2022-07-11T03:49:16;6.90;;;4.43;;
8698;SDS011;4386;51.236;6.742;2022-07-11T03:50:18;5.93;;;3.90;;
8698;SDS011;4386;51.236;6.742;2022-07-11T03:51:21;6.43;;;4.37;;
8698;SDS011;4386;51.236;6.742;2022-07-11T03:52:23;6.10;;;4.40;;
8698;SDS011;4386;51.236;6.742;2022-07-11T03:53:25;8.50;;;5.03;;
8698;SDS011;4386;51.236;6.742;2022-07-11T03:54:27;7.10;;;5.37;;
8698;SDS011;4386;51.236;6.742;2022-07-11T03:55:30;10.97;;;4.70;;
8698;SDS011;4386;51.236;6.742;2022-07-11T03:56:32;8.70;;;4.40;;
8698;SDS011;4386;51.236;6.742;2022-07-11T03:57:39;5.10;;;4.27;;
8698;SDS011;4386;51.236;6.742;2022-07-11T03:58:40;4.27;;;3.67;;
8698;SDS011;4386;51.236;6.742;2022-07-11T03:59:44;8.20;;;4.00;;
8698;SDS011;4386;51.236;6.742;2022-07-11T04:00:46;7.70;;;4.03;;
8698;SDS011;4386;51.236;6.742;2022-07-11T04:01:49;7.00;;;4.63;;
8698;SDS011;4386;51.236;6.742;2022-07-11T04:02:50;5.47;;;3.90;;
8698;SDS011;4386;51.236;6.742;2022-07-11T04:03:53;7.50;;;4.20;;
8698;SDS011;4386;51.236;6.742;2022-07-11T04:04:55;6.60;;;3.70;;
8698;SDS011;4386;51.236;6.742;2022-07-11T04:05:57;5.20;;;4.30;;
8698;SDS011;4386;51.236;6.742;2022-07-11T04:06:59;5.63;;;4.30;;
8698;SDS011;4386;51.236;6.742;2022-07-11T04:08:02;4.33;;;3.93;;
8698;SDS011;4386;51.236;6.742;2022-07-11T04:09:04;5.40;;;3.83;;
8698;SDS011;4386;51.236;6.742;2022-07-11T04:10:06;6.77;;;3.80;;
8698;SDS011;4386;51.236;6.742;2022-07-11T04:11:09;9.27;;;4.00;;
8698;SDS011;4386;51.236;6.742;2022-07-11T04:12:11;6.03;;;3.93;;
8698;SDS011;4386;51.236;6.742;2022-07-11T04:13:13;9.23;;;3.37;;
8698;SDS011;4386;51.236;6.742;2022-07-11T04:14:16;5.37;;;3.63;;
8698;SDS011;4386;51.236;6.742;2022-07-11T04:15:19;7.63;;;3.60;;
8698;SDS011;4386;51.236;6.742;2022-07-11T04:16:22;4.30;;;3.17;;
8698;SDS011;4386;51.236;6.742;2022-07-11T04:17:24;6.87;;;2.83;;
8698;SDS011;4386;51.236;6.742;2022-07-11T04:18:27;7.73;;;3.67;;
8698;SDS011;4386;51.236;6.742;2022-07-11T04:19:30;3.60;;;3.20;;
8698;SDS011;4386;51.236;6.742;2022-07-11T04:20:32;6.00;;;3.17;;
8698;SDS011;4386;51.236;6.742;2022-07-11T04:21:34;8.30;;;4.30;;
8698;SDS011;4386;51.236;6.742;2022-07-11T04:22:37;12.30;;;3.70;;
8698;SDS011;4386;51.236;6.742;2022-07-11T04:23:39;3.80;;;3.40;;
8698;SDS011;4386;51.236;6.742;2022-07-11T04:24:42;4.57;;;3.13;;
8698;SDS011;4386;51.236;6.742;2022-07-11T04:25:44;6.00;;;3.20;;
8698;SDS011;4386;51.236;6.742;2022-07-11T04:26:47;10.03;;;3.33;;
8698;SDS011;4386;51.236;6.742;2022-07-11T04:27:49;4.07;;;3.53;;
8698;SDS011;4386;51.236;6.742;2022-07-11T04:28:51;5.37;;;3.90;;
8698;SDS011;4386;51.236;6.742;2022-07-11T04:29:53;4.53;;;3.60;;
8698;SDS011;4386;51.236;6.742;2022-07-11T04:30:57;9.77;;;3.67;;
8698;SDS011;4386;51.236;6.742;2022-07-11T04:31:58;5.20;;;2.97;;
8698;SDS011;4386;51.236;6.742;2022-07-11T04:33:01;5.63;;;3.13;;
8698;SDS011;4386;51.236;6.742;2022-07-11T04:34:10;7.33;;;3.67;;
8698;SDS011;4386;51.236;6.742;2022-07-11T04:35:14;5.47;;;3.53;;
8698;SDS011;4386;51.236;6.742;2022-07-11T04:36:18;4.33;;;3.00;;
8698;SDS011;4386;51.236;6.742;2022-07-11T04:37:21;5.07;;;3.63;;
8698;SDS011;4386;51.236;6.742;2022-07-11T04:38:22;7.73;;;3.00;;
8698;SDS011;4386;51.236;6.742;2022-07-11T04:39:25;7.80;;;3.33;;
8698;SDS011;4386;51.236;6.742;2022-07-11T04:40:27;7.40;;;3.20;;
8698;SDS011;4386;51.236;6.742;2022-07-11T04:41:30;6.43;;;3.63;;
8698;SDS011;4386;51.236;6.742;2022-07-11T04:42:32;3.37;;;3.07;;
8698;SDS011;4386;51.236;6.742;2022-07-11T04:43:34;3.47;;;2.83;;
8698;SDS011;4386;51.236;6.742;2022-07-11T04:44:38;4.23;;;3.20;;
8698;SDS011;4386;51.236;6.742;2022-07-11T04:45:40;3.33;;;2.77;;
8698;SDS011;4386;51.236;6.742;2022-07-11T04:46:43;3.80;;;3.30;;
8698;SDS011;4386;51.236;6.742;2022-07-11T04:47:46;3.67;;;3.03;;
8698;SDS011;4386;51.236;6.742;2022-07-11T04:48:47;4.97;;;2.90;;
8698;SDS011;4386;51.236;6.742;2022-07-11T04:49:50;8.53;;;3.80;;
8698;SDS011;4386;51.236;6.742;2022-07-11T04:50:53;4.83;;;3.40;;
8698;SDS011;4386;51.236;6.742;2022-07-11T04:51:56;3.30;;;2.97;;
8698;SDS011;4386;51.236;6.742;2022-07-11T04:53:03;4.37;;;3.10;;
8698;SDS011;4386;51.236;6.742;2022-07-11T04:54:06;3.90;;;2.60;;
8698;SDS011;4386;51.236;6.742;2022-07-11T04:55:08;4.20;;;3.27;;
8698;SDS011;4386;51.236;6.742;2022-07-11T04:56:10;3.20;;;2.43;;
8698;SDS011;4386;51.236;6.742;2022-07-11T04:57:12;2.97;;;2.43;;
8698;SDS011;4386;51.236;6.742;2022-07-11T04:58:15;2.40;;;2.20;;
8698;SDS011;4386;51.236;6.742;2022-07-11T04:59:16;3.00;;;1.53;;
8698;SDS011;4386;51.236;6.742;2022-07-11T05:00:19;3.00;;;2.13;;
8698;SDS011;4386;51.236;6.742;2022-07-11T05:01:22;2.10;;;1.90;;
8698;SDS011;4386;51.236;6.742;2022-07-11T05:02:25;2.70;;;2.03;;
8698;SDS011;4386;51.236;6.742;2022-07-11T05:03:27;2.40;;;1.77;;
8698;SDS011;4386;51.236;6.742;2022-07-11T05:04:29;3.73;;;1.80;;
8698;SDS011;4386;51.236;6.742;2022-07-11T05:05:32;1.87;;;1.67;;
8698;SDS011;4386;51.236;6.742;2022-07-11T05:06:33;1.70;;;1.60;;
8698;SDS011;4386;51.236;6.742;2022-07-11T05:07:36;4.77;;;1.97;;
8698;SDS011;4386;51.236;6.742;2022-07-11T05:08:38;3.83;;;1.80;;
8698;SDS011;4386;51.236;6.742;2022-07-11T05:09:41;2.00;;;1.80;;
8698;SDS011;4386;51.236;6.742;2022-07-11T05:10:42;7.53;;;2.10;;
8698;SDS011;4386;51.236;6.742;2022-07-11T05:11:45;2.73;;;2.10;;
8698;SDS011;4386;51.236;6.742;2022-07-11T05:12:47;3.03;;;2.80;;
8698;SDS011;4386;51.236;6.742;2022-07-11T05:13:52;3.27;;;2.97;;
8698;SDS011;4386;51.236;6.742;2022-07-11T05:14:53;3.33;;;3.03;;
8698;SDS011;4386;51.236;6.742;2022-07-11T05:15:56;3.47;;;3.17;;
8698;SDS011;4386;51.236;6.742;2022-07-11T05:16:58;3.90;;;3.60;;
8698;SDS011;4386;51.236;6.742;2022-07-11T05:18:02;3.00;;;2.80;;
8698;SDS011;4386;51.236;6.742;2022-07-11T05:19:05;3.10;;;2.90;;
8698;SDS011;4386;51.236;6.742;2022-07-11T05:20:07;3.10;;;2.90;;
8698;SDS011;4386;51.236;6.742;2022-07-11T05:21:10;3.60;;;3.27;;
8698;SDS011;4386;51.236;6.742;2022-07-11T05:22:12;8.00;;;4.20;;
8698;SDS011;4386;51.236;6.742;2022-07-11T05:23:14;4.70;;;4.20;;
8698;SDS011;4386;51.236;6.742;2022-07-11T05:24:16;6.27;;;3.60;;
8698;SDS011;4386;51.236;6.742;2022-07-11T05:25:20;4.10;;;3.67;;
8698;SDS011;4386;51.236;6.742;2022-07-11T05:26:23;4.73;;;3.83;;
8698;SDS011;4386;51.236;6.742;2022-07-11T05:27:24;8.50;;;4.83;;
8698;SDS011;4386;51.236;6.742;2022-07-11T05:28:27;3.33;;;3.03;;
8698;SDS011;4386;51.236;6.742;2022-07-11T05:29:28;3.97;;;3.67;;
8698;SDS011;4386;51.236;6.742;2022-07-11T05:30:31;5.97;;;4.47;;
8698;SDS011;4386;51.236;6.742;2022-07-11T05:31:34;5.47;;;4.07;;
8698;SDS011;4386;51.236;6.742;2022-07-11T05:32:35;4.50;;;4.10;;
8698;SDS011;4386;51.236;6.742;2022-07-11T05:33:39;4.00;;;3.70;;
8698;SDS011;4386;51.236;6.742;2022-07-11T05:34:41;5.03;;;4.20;;
8698;SDS011;4386;51.236;6.742;2022-07-11T05:35:44;4.10;;;3.70;;
8698;SDS011;4386;51.236;6.742;2022-07-11T05:36:46;4.47;;;4.07;;
8698;SDS011;4386;51.236;6.742;2022-07-11T05:37:49;4.53;;;4.13;;
8698;SDS011;4386;51.236;6.742;2022-07-11T05:38:50;4.70;;;4.23;;
8698;SDS011;4386;51.236;6.742;2022-07-11T05:39:53;5.10;;;4.60;;
8698;SDS011;4386;51.236;6.742;2022-07-11T05:40:55;5.20;;;4.70;;
8698;SDS011;4386;51.236;6.742;2022-07-11T05:41:59;4.87;;;4.40;;
8698;SDS011;4386;51.236;6.742;2022-07-11T05:43:02;5.53;;;4.90;;
8698;SDS011;4386;51.236;6.742;2022-07-11T05:44:04;5.30;;;4.80;;
8698;SDS011;4386;51.236;6.742;2022-07-11T05:45:07;5.17;;;4.70;;
8698;SDS011;4386;51.236;6.742;2022-07-11T05:46:10;6.03;;;5.40;;
8698;SDS011;4386;51.236;6.742;2022-07-11T05:47:15;6.93;;;6.33;;
8698;SDS011;4386;51.236;6.742;2022-07-11T05:48:18;7.13;;;5.83;;
8698;SDS011;4386;51.236;6.742;2022-07-11T05:49:22;7.67;;;6.97;;
8698;SDS011;4386;51.236;6.742;2022-07-11T05:50:25;7.80;;;7.00;;
8698;SDS011;4386;51.236;6.742;2022-07-11T05:51:28;8.50;;;7.63;;
8698;SDS011;4386;51.236;6.742;2022-07-11T05:52:30;8.17;;;7.33;;
8698;SDS011;4386;51.236;6.742;2022-07-11T05:53:35;8.00;;;7.30;;
8698;SDS011;4386;51.236;6.742;2022-07-11T05:54:39;8.27;;;7.33;;
8698;SDS011;4386;51.236;6.742;2022-07-11T05:55:43;6.90;;;6.30;;
8698;SDS011;4386;51.236;6.742;2022-07-11T05:56:45;5.73;;;5.23;;
8698;SDS011;4386;51.236;6.742;2022-07-11T05:57:48;3.37;;;3.07;;
8698;SDS011;4386;51.236;6.742;2022-07-11T05:58:52;4.37;;;3.97;;
8698;SDS011;4386;51.236;6.742;2022-07-11T05:59:56;5.90;;;4.23;;
8698;SDS011;4386;51.236;6.742;2022-07-11T06:00:59;4.40;;;3.50;;
8698;SDS011;4386;51.236;6.742;2022-07-11T06:02:02;3.90;;;3.23;;
8698;SDS011;4386;51.236;6.742;2022-07-11T06:03:08;4.17;;;3.60;;
8698;SDS011;4386;51.236;6.742;2022-07-11T06:04:10;4.50;;;4.10;;
8698;SDS011;4386;51.236;6.742;2022-07-11T06:05:15;6.30;;;3.90;;
8698;SDS011;4386;51.236;6.742;2022-07-11T06:06:17;5.20;;;4.17;;
8698;SDS011;4386;51.236;6.742;2022-07-11T06:07:19;4.67;;;4.27;;
8698;SDS011;4386;51.236;6.742;2022-07-11T06:08:36;7.80;;;5.17;;
8698;SDS011;4386;51.236;6.742;2022-07-11T06:09:44;5.90;;;4.33;;
8698;SDS011;4386;51.236;6.742;2022-07-11T06:10:48;5.27;;;4.30;;
8698;SDS011;4386;51.236;6.742;2022-07-11T06:11:53;7.50;;;6.43;;
8698;SDS011;4386;51.236;6.742;2022-07-11T06:12:56;9.03;;;6.20;;
8698;SDS011;4386;51.236;6.742;2022-07-11T06:14:02;7.63;;;6.83;;
8698;SDS011;4386;51.236;6.742;2022-07-11T06:15:07;9.17;;;5.83;;
8698;SDS011;4386;51.236;6.742;2022-07-11T06:16:09;8.73;;;6.13;;
8698;SDS011;4386;51.236;6.742;2022-07-11T06:17:12;10.23;;;7.17;;
8698;SDS011;4386;51.236;6.742;2022-07-11T06:18:14;6.33;;;5.43;;
8698;SDS011;4386;51.236;6.742;2022-07-11T06:19:17;8.00;;;6.67;;
8698;SDS011;4386;51.236;6.742;2022-07-11T06:20:21;14.53;;;6.27;;
8698;SDS011;4386;51.236;6.742;2022-07-11T06:21:22;8.07;;;5.93;;
8698;SDS011;4386;51.236;6.742;2022-07-11T06:22:25;6.00;;;4.90;;
8698;SDS011;4386;51.236;6.742;2022-07-11T06:23:26;8.13;;;5.50;;
8698;SDS011;4386;51.236;6.742;2022-07-11T06:24:30;9.20;;;6.17;;
8698;SDS011;4386;51.236;6.742;2022-07-11T06:25:32;6.63;;;5.60;;
8698;SDS011;4386;51.236;6.742;2022-07-11T06:26:34;6.60;;;5.50;;
8698;SDS011;4386;51.236;6.742;2022-07-11T06:27:37;7.80;;;5.63;;
8698;SDS011;4386;51.236;6.742;2022-07-11T06:28:39;6.17;;;5.57;;
8698;SDS011;4386;51.236;6.742;2022-07-11T06:29:42;5.60;;;5.10;;
8698;SDS011;4386;51.236;6.742;2022-07-11T06:30:44;6.90;;;5.43;;